Time;durP1;ratioP1;P1;durP2;ratioP2;P2;SDS_P1;SDS_P2;PMS_P1;PMS_P2;Temp;Humidity;BMP_temperature;BMP_pressure;BME280_temperature;BME280_humidity;BME280_pressure;Samples;Min_cycle;Max_cycle;Signal;HPM_P1;HPM_P2
2023/02/16 00:00:45;;;;;;;30.43;17.80;;;;;;;;;;4991475;28;20487;-47
2023/02/16 00:03:19;;;;;;;34.03;17.27;;;;;;;;;;4991718;28;20421;-47
2023/02/16 00:05:45;;;;;;;34.03;17.13;;;;;;;;;;4989622;28;20483;-47
2023/02/16 00:08:11;;;;;;;32.13;16.07;;;;;;;;;;4991787;28;20426;-45
2023/02/16 00:10:38;;;;;;;25.17;16.10;;;;;;;;;;4994622;28;20466;-46
2023/02/16 00:13:51;;;;;;;28.87;16.90;;;;;;;;;;4995545;28;20411;-48
2023/02/16 00:16:18;;;;;;;28.23;18.07;;;;;;;;;;4983622;28;20413;-48
2023/02/16 00:18:44;;;;;;;28.20;17.73;;;;;;;;;;4995021;28;20416;-46
2023/02/16 00:21:10;;;;;;;31.03;16.47;;;;;;;;;;4995317;28;20405;-45
2023/02/16 00:23:36;;;;;;;28.03;16.03;;;;;;;;;;4995214;28;20826;-44
2023/02/16 00:26:02;;;;;;;32.40;17.43;;;;;;;;;;4994236;28;20655;-48
2023/02/16 00:28:28;;;;;;;30.93;15.93;;;;;;;;;;4994889;28;20473;-48
2023/02/16 00:30:54;;;;;;;31.07;16.33;;;;;;;;;;4994364;28;21053;-47
2023/02/16 00:33:20;;;;;;;31.17;17.97;;;;;;;;;;4995002;28;20417;-48
2023/02/16 00:35:47;;;;;;;29.37;16.67;;;;;;;;;;4994396;28;20534;-47
2023/02/16 00:38:13;;;;;;;27.23;16.70;;;;;;;;;;4994644;28;20413;-47
2023/02/16 00:40:40;;;;;;;28.03;17.70;;;;;;;;;;4994905;28;20516;-48
2023/02/16 00:43:06;;;;;;;27.60;16.10;;;;;;;;;;4994550;28;20428;-46
2023/02/16 00:45:36;;;;;;;33.63;17.07;;;;;;;;;;4993982;28;20434;-46
2023/02/16 00:48:02;;;;;;;31.73;17.03;;;;;;;;;;4994710;28;20413;-46
2023/02/16 00:50:30;;;;;;;32.78;17.55;;;;;;;;;;4994534;28;20464;-47
2023/02/16 00:52:57;;;;;;;32.90;16.87;;;;;;;;;;4994740;28;20177;-47
2023/02/16 00:55:27;;;;;;;32.13;17.20;;;;;;;;;;4996495;28;20413;-45
2023/02/16 00:57:55;;;;;;;28.73;16.87;;;;;;;;;;4994250;28;20411;-47
2023/02/16 01:00:26;;;;;;;29.90;18.50;;;;;;;;;;4994437;28;20429;-47
2023/02/16 01:02:53;;;;;;;28.23;17.17;;;;;;;;;;4994419;28;20908;-47
2023/02/16 01:05:19;;;;;;;33.67;16.60;;;;;;;;;;4993761;28;20423;-45
2023/02/16 01:13:15;;;;;;;36.53;17.20;;;;;;;;;;4987177;28;20471;-45
2023/02/16 01:15:41;;;;;;;33.80;16.83;;;;;;;;;;4993663;28;20889;-45
2023/02/16 01:18:07;;;;;;;27.47;16.90;;;;;;;;;;4993889;28;20451;-48
2023/02/16 01:20:35;;;;;;;31.97;17.90;;;;;;;;;;4993654;28;20424;-45
2023/02/16 01:23:01;;;;;;;33.13;18.03;;;;;;;;;;4993975;28;20847;-45
2023/02/16 01:25:27;;;;;;;40.93;18.93;;;;;;;;;;4993520;28;20407;-45
2023/02/16 01:27:53;;;;;;;27.37;17.60;;;;;;;;;;4993782;28;20409;-47
2023/02/16 01:30:20;;;;;;;31.13;17.10;;;;;;;;;;4993669;28;21052;-44
2023/02/16 01:32:50;;;;;;;33.50;16.83;;;;;;;;;;4993878;28;20430;-46
2023/02/16 01:35:17;;;;;;;28.45;16.35;;;;;;;;;;4985615;28;20893;-48
2023/02/16 01:37:43;;;;;;;34.27;17.93;;;;;;;;;;4993973;28;20268;-45
2023/02/16 01:40:19;;;;;;;32.87;16.23;;;;;;;;;;4992609;28;20599;-47
2023/02/16 01:42:50;;;;;;;28.05;16.27;;;;;;;;;;4993972;28;20907;-47
2023/02/16 01:45:19;;;;;;;32.97;16.40;;;;;;;;;;4985529;28;20184;-45
2023/02/16 01:47:52;;;;;;;29.60;16.20;;;;;;;;;;4993277;28;20646;-47
2023/02/16 01:50:27;;;;;;;31.07;17.97;;;;;;;;;;4991408;28;20479;-45
2023/02/16 01:52:58;;;;;;;30.70;15.32;;;;;;;;;;4993603;28;20765;-47
2023/02/16 01:55:29;;;;;;;29.57;16.03;;;;;;;;;;4992869;28;20177;-48
2023/02/16 01:58:00;;;;;;;24.17;15.17;;;;;;;;;;4992877;28;20475;-46
2023/02/16 02:00:29;;;;;;;29.05;16.52;;;;;;;;;;4993349;28;20432;-47
2023/02/16 02:05:33;;;;;;;28.60;17.03;;;;;;;;;;4992351;28;20267;-45
2023/02/16 02:05:43;;;;;;;31.97;16.20;;;;;;;;;;4992091;28;20417;-48
2023/02/16 02:08:14;;;;;;;27.98;15.30;;;;;;;;;;4992811;28;20416;-47
2023/02/16 02:10:59;;;;;;;27.20;17.80;;;;;;;;;;4993365;28;20251;-48
2023/02/16 02:13:25;;;;;;;29.60;17.50;;;;;;;;;;4986452;28;20900;-47
2023/02/16 02:15:51;;;;;;;29.77;16.50;;;;;;;;;;4993087;28;20409;-46
2023/02/16 02:18:17;;;;;;;30.23;16.67;;;;;;;;;;4992812;28;20409;-45
2023/02/16 02:23:58;;;;;;;29.50;16.20;;;;;;;;;;4988658;28;20415;-45
2023/02/16 02:26:40;;;;;;;28.40;17.97;;;;;;;;;;4987633;28;20411;-47
2023/02/16 02:29:12;;;;;;;27.37;16.87;;;;;;;;;;4992277;28;20520;-47
2023/02/16 02:31:50;;;;;;;30.13;16.67;;;;;;;;;;4991922;28;20991;-47
2023/02/16 02:34:22;;;;;;;31.23;16.10;;;;;;;;;;4984955;28;20503;-47
2023/02/16 02:36:47;;;;;;;30.83;15.50;;;;;;;;;;4991905;28;20460;-45
2023/02/16 02:39:16;;;;;;;31.30;16.80;;;;;;;;;;4992395;28;20467;-48
2023/02/16 02:42:03;;;;;;;29.30;17.10;;;;;;;;;;4988390;28;20416;-45
2023/02/16 02:44:29;;;;;;;30.30;17.43;;;;;;;;;;4992551;28;20500;-47
2023/02/16 02:46:55;;;;;;;28.33;16.87;;;;;;;;;;4992006;28;20416;-45
2023/02/16 02:49:21;;;;;;;30.47;17.57;;;;;;;;;;4992241;28;20486;-45
2023/02/16 02:51:51;;;;;;;33.50;17.17;;;;;;;;;;4992486;28;20554;-45
2023/02/16 03:02:53;;;;;;;26.83;16.57;;;;;;;;;;4992523;28;20924;-48
2023/02/16 03:05:22;;;;;;;30.08;16.13;;;;;;;;;;4991755;28;20495;-48
2023/02/16 03:07:49;;;;;;;27.10;15.10;;;;;;;;;;4990726;28;20184;-44
2023/02/16 03:13:05;;;;;;;26.90;15.70;;;;;;;;;;4992133;28;20400;-46
2023/02/16 03:15:31;;;;;;;24.83;14.97;;;;;;;;;;4991581;28;20892;-46
2023/02/16 03:31:49;;;;;;;29.67;15.07;;;;;;;;;;4991948;28;20576;-47
2023/02/16 03:34:16;;;;;;;36.53;17.40;;;;;;;;;;4987060;28;20809;-47
2023/02/16 03:36:43;;;;;;;30.58;16.80;;;;;;;;;;4991678;28;20436;-45
2023/02/16 03:39:09;;;;;;;31.10;16.25;;;;;;;;;;4991596;28;20296;-47
2023/02/16 03:41:40;;;;;;;28.93;15.93;;;;;;;;;;4991991;28;20195;-46
2023/02/16 03:44:06;;;;;;;28.67;16.33;;;;;;;;;;4994423;28;20420;-48
2023/02/16 03:46:32;;;;;;;31.07;16.37;;;;;;;;;;4995293;28;20207;-47
2023/02/16 03:48:58;;;;;;;24.50;14.43;;;;;;;;;;4995608;28;20470;-47
2023/02/16 03:51:24;;;;;;;28.80;17.00;;;;;;;;;;4995576;28;20568;-47
2023/02/16 03:53:50;;;;;;;30.10;16.73;;;;;;;;;;4995709;28;20837;-47
2023/02/16 03:56:16;;;;;;;35.73;16.90;;;;;;;;;;4997711;28;20411;-46
2023/02/16 03:58:42;;;;;;;26.60;15.87;;;;;;;;;;4995572;28;20417;-47
2023/02/16 04:01:08;;;;;;;27.37;14.83;;;;;;;;;;4995260;28;20424;-47
2023/02/16 04:03:34;;;;;;;27.97;15.47;;;;;;;;;;4995449;28;20407;-46
2023/02/16 04:06:00;;;;;;;29.07;17.37;;;;;;;;;;4995028;28;20408;-45
2023/02/16 04:08:26;;;;;;;29.23;17.30;;;;;;;;;;4995295;28;20435;-44
2023/02/16 04:10:54;;;;;;;27.67;17.10;;;;;;;;;;4995111;28;20990;-47
2023/02/16 04:13:20;;;;;;;30.95;16.13;;;;;;;;;;4995536;28;20440;-45
2023/02/16 04:15:46;;;;;;;27.10;15.93;;;;;;;;;;4994770;28;20259;-45
2023/02/16 04:18:12;;;;;;;36.77;17.70;;;;;;;;;;4995053;28;20416;-45
2023/02/16 04:20:38;;;;;;;32.87;16.83;;;;;;;;;;4994997;28;20436;-45
2023/02/16 04:23:04;;;;;;;28.67;15.97;;;;;;;;;;4995211;28;20408;-45
2023/02/16 04:25:30;;;;;;;28.85;15.90;;;;;;;;;;4994619;28;20441;-45
2023/02/16 04:27:56;;;;;;;32.72;15.50;;;;;;;;;;4995117;28;20279;-47
2023/02/16 04:30:27;;;;;;;29.53;16.07;;;;;;;;;;4995254;28;20731;-45
2023/02/16 04:32:53;;;;;;;34.53;16.95;;;;;;;;;;4994688;28;20438;-47
2023/02/16 04:35:19;;;;;;;32.28;17.00;;;;;;;;;;4994591;28;20516;-47
2023/02/16 04:37:45;;;;;;;29.27;15.35;;;;;;;;;;4995091;28;20668;-46
2023/02/16 04:40:12;;;;;;;29.07;16.30;;;;;;;;;;4994501;28;20276;-48
2023/02/16 04:42:38;;;;;;;36.78;18.35;;;;;;;;;;4994859;28;20403;-48
2023/02/16 04:45:05;;;;;;;26.88;14.88;;;;;;;;;;4994098;28;20725;-43
2023/02/16 04:47:31;;;;;;;30.30;17.75;;;;;;;;;;4994809;28;20437;-47
2023/02/16 04:49:57;;;;;;;28.67;17.17;;;;;;;;;;4994615;28;20639;-48
2023/02/16 04:52:23;;;;;;;29.20;16.27;;;;;;;;;;4994571;28;20791;-47
2023/02/16 04:54:48;;;;;;;30.05;17.08;;;;;;;;;;4993889;28;20428;-48
2023/02/16 04:57:15;;;;;;;31.73;16.67;;;;;;;;;;4994430;28;20185;-48
2023/02/16 04:59:41;;;;;;;27.50;16.90;;;;;;;;;;4994310;28;20474;-47
2023/02/16 05:02:07;;;;;;;33.57;17.03;;;;;;;;;;4994398;28;20238;-47
2023/02/16 05:04:33;;;;;;;33.03;16.07;;;;;;;;;;4994520;28;20420;-47
2023/02/16 05:06:59;;;;;;;30.60;16.88;;;;;;;;;;4993398;28;20420;-47
2023/02/16 05:09:25;;;;;;;34.57;17.07;;;;;;;;;;4994148;28;20220;-46
2023/02/16 05:14:42;;;;;;;28.25;17.50;;;;;;;;;;4994767;28;20466;-46
2023/02/16 05:17:18;;;;;;;32.53;16.98;;;;;;;;;;4993721;28;20181;-47
2023/02/16 05:19:45;;;;;;;31.83;17.48;;;;;;;;;;4994135;28;20207;-47
2023/02/16 05:22:12;;;;;;;35.90;16.95;;;;;;;;;;4994232;28;20260;-45
2023/02/16 05:24:38;;;;;;;32.60;18.00;;;;;;;;;;4994163;28;20641;-45
2023/02/16 05:27:06;;;;;;;31.00;17.83;;;;;;;;;;4993558;28;20226;-46
2023/02/16 05:29:32;;;;;;;29.90;16.67;;;;;;;;;;4994007;28;20192;-47
2023/02/16 05:31:58;;;;;;;35.77;18.33;;;;;;;;;;4993566;28;20573;-47
2023/02/16 05:34:24;;;;;;;31.63;17.63;;;;;;;;;;4993988;28;20462;-49
2023/02/16 05:36:50;;;;;;;32.38;18.08;;;;;;;;;;4993318;28;20435;-47
2023/02/16 05:39:16;;;;;;;31.20;17.63;;;;;;;;;;4993612;28;20201;-46
2023/02/16 05:41:42;;;;;;;34.97;17.20;;;;;;;;;;4993900;28;20239;-47
2023/02/16 05:44:08;;;;;;;33.43;18.17;;;;;;;;;;4993958;28;20404;-48
2023/02/16 05:46:37;;;;;;;30.33;16.02;;;;;;;;;;4987982;28;20400;-47
2023/02/16 05:49:03;;;;;;;38.90;18.90;;;;;;;;;;4993607;28;20204;-47
2023/02/16 05:51:29;;;;;;;33.83;18.40;;;;;;;;;;4993604;28;20200;-47
2023/02/16 05:53:55;;;;;;;28.70;16.70;;;;;;;;;;4993455;28;20542;-41
2023/02/16 05:56:21;;;;;;;30.10;17.17;;;;;;;;;;4995427;28;20897;-41
2023/02/16 05:58:47;;;;;;;37.13;18.75;;;;;;;;;;4993416;28;20657;-41
2023/02/16 06:01:14;;;;;;;33.73;19.50;;;;;;;;;;4993483;28;20179;-43
2023/02/16 06:03:40;;;;;;;29.83;16.85;;;;;;;;;;4993532;28;20414;-41
2023/02/16 06:06:06;;;;;;;33.33;18.67;;;;;;;;;;4992279;28;20193;-41
2023/02/16 06:08:33;;;;;;;32.38;18.02;;;;;;;;;;4991537;28;20417;-43
2023/02/16 06:10:59;;;;;;;31.75;18.02;;;;;;;;;;4993027;28;20205;-44
2023/02/16 06:13:25;;;;;;;38.00;17.50;;;;;;;;;;4993128;28;20535;-44
2023/02/16 06:15:52;;;;;;;33.20;17.15;;;;;;;;;;4992099;28;20181;-44
2023/02/16 06:18:19;;;;;;;34.97;16.95;;;;;;;;;;4992526;28;20185;-44
2023/02/16 06:20:45;;;;;;;31.00;16.83;;;;;;;;;;4993074;28;20635;-43
2023/02/16 06:23:11;;;;;;;33.50;17.97;;;;;;;;;;4993456;28;20265;-43
2023/02/16 06:25:38;;;;;;;34.45;17.70;;;;;;;;;;4992473;28;20840;-43
2023/02/16 06:28:04;;;;;;;32.13;19.38;;;;;;;;;;4992159;28;20185;-44
2023/02/16 06:30:30;;;;;;;30.93;17.40;;;;;;;;;;4992392;28;20205;-47
2023/02/16 06:32:56;;;;;;;36.90;18.30;;;;;;;;;;4992349;28;20931;-43
2023/02/16 06:35:22;;;;;;;35.35;18.02;;;;;;;;;;4991795;28;20908;-43
2023/02/16 06:37:48;;;;;;;33.40;17.63;;;;;;;;;;4992315;28;20645;-43
2023/02/16 06:40:14;;;;;;;31.90;18.17;;;;;;;;;;4983394;28;20220;-43
2023/02/16 06:42:41;;;;;;;37.78;16.90;;;;;;;;;;4999696;28;20397;-41
2023/02/16 06:45:07;;;;;;;34.28;19.45;;;;;;;;;;4992694;28;20172;-41
2023/02/16 06:47:34;;;;;;;35.08;18.98;;;;;;;;;;4994162;28;20177;-44
2023/02/16 06:50:00;;;;;;;32.88;18.65;;;;;;;;;;4992182;28;20200;-45
2023/02/16 06:52:26;;;;;;;30.77;17.15;;;;;;;;;;4992402;28;20169;-44
2023/02/16 06:54:52;;;;;;;32.77;16.80;;;;;;;;;;4992503;28;20180;-41
2023/02/16 06:57:18;;;;;;;32.57;17.57;;;;;;;;;;4992097;28;20494;-41
2023/02/16 06:59:44;;;;;;;34.40;16.73;;;;;;;;;;4992160;28;20958;-41
2023/02/16 07:02:10;;;;;;;33.30;18.93;;;;;;;;;;4992467;28;20177;-41
2023/02/16 07:04:36;;;;;;;36.00;18.07;;;;;;;;;;4992368;28;20511;-41
2023/02/16 07:07:02;;;;;;;33.37;16.70;;;;;;;;;;4991337;28;20507;-42
2023/02/16 07:09:28;;;;;;;25.30;15.53;;;;;;;;;;4992377;28;20436;-41
2023/02/16 07:11:54;;;;;;;37.13;18.03;;;;;;;;;;4992085;28;20509;-41
2023/02/16 07:14:21;;;;;;;35.40;18.87;;;;;;;;;;4992182;28;20413;-41
2023/02/16 07:16:47;;;;;;;32.08;17.35;;;;;;;;;;4991411;28;20418;-41
2023/02/16 07:19:13;;;;;;;33.27;18.33;;;;;;;;;;4991285;28;20197;-42
2023/02/16 07:21:38;;;;;;;34.00;17.47;;;;;;;;;;4991062;28;20897;-41
2023/02/16 07:24:05;;;;;;;28.87;16.40;;;;;;;;;;4996253;28;20895;-42
2023/02/16 07:26:31;;;;;;;30.00;17.77;;;;;;;;;;4993815;28;20443;-42
2023/02/16 07:28:57;;;;;;;30.07;16.43;;;;;;;;;;4991748;28;20874;-43
2023/02/16 07:31:25;;;;;;;27.53;16.80;;;;;;;;;;4991052;28;20586;-45
2023/02/16 07:33:52;;;;;;;31.23;16.63;;;;;;;;;;4991871;28;20737;-42
2023/02/16 07:36:18;;;;;;;29.90;16.87;;;;;;;;;;4991327;28;20400;-41
2023/02/16 07:38:44;;;;;;;29.00;17.27;;;;;;;;;;4992002;28;20931;-42
2023/02/16 07:41:10;;;;;;;31.17;17.50;;;;;;;;;;4992012;28;20569;-43
2023/02/16 07:43:36;;;;;;;31.30;16.67;;;;;;;;;;4991973;28;20414;-44
2023/02/16 07:46:03;;;;;;;27.23;16.40;;;;;;;;;;4991690;28;20896;-43
2023/02/16 07:48:29;;;;;;;35.73;19.20;;;;;;;;;;4991435;28;20417;-43
2023/02/16 07:50:54;;;;;;;34.43;17.73;;;;;;;;;;4991824;28;20472;-44
2023/02/16 07:53:20;;;;;;;35.53;18.57;;;;;;;;;;4991908;28;20416;-44
2023/02/16 07:55:47;;;;;;;27.70;16.80;;;;;;;;;;4991303;28;20409;-44
2023/02/16 07:58:25;;;;;;;31.80;17.20;;;;;;;;;;4991527;28;20482;-44
2023/02/16 08:00:53;;;;;;;35.23;17.50;;;;;;;;;;4991541;28;20532;-43
2023/02/16 08:03:19;;;;;;;28.63;17.00;;;;;;;;;;4991776;28;20478;-44
2023/02/16 08:05:45;;;;;;;30.30;16.80;;;;;;;;;;4991217;28;20417;-44
2023/02/16 08:08:11;;;;;;;30.40;16.40;;;;;;;;;;4991588;28;20411;-44
2023/02/16 08:10:37;;;;;;;30.73;17.57;;;;;;;;;;4991670;28;20471;-43
2023/02/16 08:13:03;;;;;;;26.70;16.30;;;;;;;;;;4991861;28;20790;-43
2023/02/16 08:15:29;;;;;;;28.03;17.03;;;;;;;;;;4990994;28;20400;-44
2023/02/16 08:17:55;;;;;;;31.83;17.77;;;;;;;;;;4995875;28;20499;-43
2023/02/16 08:20:21;;;;;;;30.60;17.40;;;;;;;;;;4991671;28;20446;-43
2023/02/16 08:22:46;;;;;;;27.50;16.57;;;;;;;;;;4991771;28;20422;-44
2023/02/16 08:25:14;;;;;;;23.70;15.97;;;;;;;;;;4991541;28;20414;-44
2023/02/16 08:27:40;;;;;;;27.27;16.77;;;;;;;;;;4990850;28;20426;-43
2023/02/16 08:30:11;;;;;;;24.60;16.13;;;;;;;;;;4991885;28;20457;-44
2023/02/16 08:32:37;;;;;;;27.23;15.97;;;;;;;;;;4995146;28;20802;-44
2023/02/16 08:35:03;;;;;;;33.73;15.87;;;;;;;;;;4995054;28;20407;-44
2023/02/16 08:37:29;;;;;;;31.20;17.67;;;;;;;;;;4994446;28;20407;-44
2023/02/16 08:39:55;;;;;;;30.30;16.27;;;;;;;;;;4994865;28;20494;-43
2023/02/16 08:42:21;;;;;;;33.57;15.27;;;;;;;;;;4995674;28;20516;-43
2023/02/16 08:44:47;;;;;;;26.17;15.73;;;;;;;;;;4994704;28;20416;-43
2023/02/16 08:47:13;;;;;;;32.07;18.30;;;;;;;;;;4993695;28;20419;-44
2023/02/16 08:49:39;;;;;;;33.97;16.73;;;;;;;;;;4993724;28;20846;-44
2023/02/16 08:52:05;;;;;;;29.43;16.33;;;;;;;;;;4994381;28;20476;-44
2023/02/16 08:54:32;;;;;;;31.77;17.50;;;;;;;;;;4994997;28;20408;-44
2023/02/16 08:57:00;;;;;;;28.33;17.27;;;;;;;;;;4994710;28;20415;-43
2023/02/16 08:59:26;;;;;;;29.23;17.10;;;;;;;;;;4994200;28;20485;-43
2023/02/16 09:01:52;;;;;;;35.60;16.93;;;;;;;;;;4993564;28;20458;-43
2023/02/16 09:04:19;;;;;;;26.40;16.17;;;;;;;;;;4994689;28;20902;-43
2023/02/16 09:06:47;;;;;;;28.53;16.83;;;;;;;;;;4993788;28;20434;-44
2023/02/16 09:09:13;;;;;;;29.33;16.80;;;;;;;;;;4994113;28;20440;-43
2023/02/16 09:11:39;;;;;;;30.63;15.47;;;;;;;;;;4994214;28;20462;-43
2023/02/16 09:14:05;;;;;;;38.10;17.40;;;;;;;;;;4994359;28;20416;-43
2023/02/16 09:16:34;;;;;;;26.73;15.90;;;;;;;;;;4993705;28;20503;-43
2023/02/16 09:19:00;;;;;;;27.73;15.87;;;;;;;;;;4993817;28;20435;-43
2023/02/16 09:21:27;;;;;;;28.50;15.83;;;;;;;;;;4994270;28;20475;-44
2023/02/16 09:23:54;;;;;;;25.40;15.87;;;;;;;;;;4999530;28;20840;-44
2023/02/16 09:26:21;;;;;;;27.87;15.50;;;;;;;;;;4992290;28;20499;-43
2023/02/16 09:28:49;;;;;;;25.30;15.00;;;;;;;;;;4993768;28;20434;-43
2023/02/16 09:31:22;;;;;;;27.57;16.37;;;;;;;;;;4993897;28;21071;-43
2023/02/16 09:33:48;;;;;;;22.37;15.80;;;;;;;;;;4994023;28;20417;-43
2023/02/16 09:36:14;;;;;;;22.13;13.80;;;;;;;;;;4992930;28;20408;-44
2023/02/16 09:38:40;;;;;;;27.60;14.83;;;;;;;;;;4992561;28;20970;-44
2023/02/16 09:41:21;;;;;;;24.73;14.43;;;;;;;;;;4993515;28;20455;-44
2023/02/16 09:43:47;;;;;;;28.10;15.20;;;;;;;;;;4993907;28;20418;-44
2023/02/16 09:46:15;;;;;;;25.43;15.53;;;;;;;;;;4992988;28;20413;-45
2023/02/16 09:48:44;;;;;;;27.23;15.40;;;;;;;;;;4993390;28;20446;-44
2023/02/16 09:51:15;;;;;;;23.83;14.80;;;;;;;;;;4993621;28;20466;-44
2023/02/16 09:53:42;;;;;;;23.73;14.10;;;;;;;;;;4993645;28;20445;-44
2023/02/16 09:56:31;;;;;;;33.43;16.03;;;;;;;;;;5006496;28;20470;-44
2023/02/16 09:59:03;;;;;;;21.77;12.87;;;;;;;;;;4983059;28;20430;-44
2023/02/16 10:01:37;;;;;;;27.10;16.03;;;;;;;;;;4987616;28;20452;-43
2023/02/16 10:04:05;;;;;;;23.43;14.20;;;;;;;;;;4993443;28;20931;-43
2023/02/16 10:06:43;;;;;;;24.87;15.67;;;;;;;;;;4992868;28;20416;-44
2023/02/16 10:09:10;;;;;;;26.10;15.20;;;;;;;;;;4992814;28;20449;-44
2023/02/16 10:11:47;;;;;;;23.03;14.30;;;;;;;;;;4993037;28;21013;-44
2023/02/16 10:14:32;;;;;;;25.90;14.67;;;;;;;;;;4984868;28;20412;-44
2023/02/16 10:17:17;;;;;;;27.63;14.20;;;;;;;;;;4992340;28;20898;-43
2023/02/16 10:19:46;;;;;;;23.37;14.90;;;;;;;;;;4987323;28;20431;-43
2023/02/16 10:22:14;;;;;;;24.30;13.90;;;;;;;;;;4973891;28;20409;-44
2023/02/16 10:24:50;;;;;;;24.00;14.30;;;;;;;;;;4973226;28;20913;-44
2023/02/16 10:27:16;;;;;;;18.77;13.10;;;;;;;;;;4984466;28;20430;-44
2023/02/16 10:29:42;;;;;;;23.83;14.50;;;;;;;;;;4991198;28;20927;-44
2023/02/16 10:32:15;;;;;;;24.87;13.80;;;;;;;;;;4991211;28;20472;-44
2023/02/16 10:34:55;;;;;;;28.40;14.90;;;;;;;;;;4992935;28;20452;-44
2023/02/16 10:37:32;;;;;;;23.77;14.97;;;;;;;;;;4987817;28;20416;-44
2023/02/16 10:40:17;;;;;;;21.80;12.97;;;;;;;;;;4992568;28;20999;-44
2023/02/16 10:42:48;;;;;;;23.97;14.43;;;;;;;;;;4992791;28;20442;-43
2023/02/16 10:45:20;;;;;;;17.73;12.90;;;;;;;;;;4984840;28;20412;-44
2023/02/16 10:47:46;;;;;;;19.13;12.50;;;;;;;;;;4991877;28;20417;-44
2023/02/16 10:50:21;;;;;;;26.30;13.93;;;;;;;;;;4992419;28;20424;-44
2023/02/16 10:52:47;;;;;;;24.80;14.67;;;;;;;;;;4992120;28;20412;-44
2023/02/16 10:55:13;;;;;;;22.10;13.60;;;;;;;;;;4995171;28;20407;-43
2023/02/16 10:57:40;;;;;;;27.73;15.10;;;;;;;;;;4992046;28;20398;-43
2023/02/16 11:00:09;;;;;;;25.93;14.27;;;;;;;;;;4991677;28;20723;-43
2023/02/16 11:02:35;;;;;;;23.53;14.77;;;;;;;;;;4992447;28;20904;-44
2023/02/16 11:05:04;;;;;;;22.20;14.77;;;;;;;;;;4992403;28;20416;-44
2023/02/16 11:07:31;;;;;;;23.90;15.10;;;;;;;;;;4991872;28;20412;-43
2023/02/16 11:10:00;;;;;;;24.47;14.87;;;;;;;;;;4991982;28;20483;-43
2023/02/16 11:12:30;;;;;;;24.83;14.90;;;;;;;;;;4992393;28;20472;-44
2023/02/16 11:15:02;;;;;;;21.93;14.97;;;;;;;;;;4992116;28;20412;-44
2023/02/16 11:17:28;;;;;;;26.60;15.43;;;;;;;;;;4991743;28;20397;-44
2023/02/16 11:19:57;;;;;;;24.93;16.07;;;;;;;;;;4989147;28;20776;-43
2023/02/16 11:22:25;;;;;;;25.83;15.27;;;;;;;;;;4991649;28;20504;-44
2023/02/16 11:24:52;;;;;;;30.67;18.23;;;;;;;;;;4992150;28;20408;-44
2023/02/16 11:27:23;;;;;;;22.47;14.17;;;;;;;;;;4991418;28;20807;-44
2023/02/16 11:29:52;;;;;;;24.23;15.27;;;;;;;;;;4992153;28;20792;-43
2023/02/16 11:32:20;;;;;;;27.57;16.23;;;;;;;;;;4991841;28;20983;-43
2023/02/16 11:34:47;;;;;;;25.07;15.67;;;;;;;;;;4992113;28;20408;-44
2023/02/16 11:37:30;;;;;;;26.20;15.90;;;;;;;;;;4991502;28;20411;-44
2023/02/16 11:40:05;;;;;;;24.37;16.13;;;;;;;;;;4992131;28;20759;-44
2023/02/16 11:42:31;;;;;;;20.57;14.87;;;;;;;;;;4992045;28;20819;-44
2023/02/16 11:44:58;;;;;;;23.43;15.60;;;;;;;;;;4991902;28;20465;-43
2023/02/16 11:47:37;;;;;;;23.07;15.77;;;;;;;;;;4991437;28;20411;-44
2023/02/16 11:50:12;;;;;;;23.47;15.47;;;;;;;;;;4991594;28;20496;-44
2023/02/16 11:52:38;;;;;;;26.87;17.10;;;;;;;;;;4990892;28;20426;-44
2023/02/16 11:55:18;;;;;;;27.53;14.83;;;;;;;;;;4994488;28;20406;-44
2023/02/16 11:57:44;;;;;;;28.60;15.80;;;;;;;;;;4991435;28;20429;-43
2023/02/16 12:00:18;;;;;;;27.27;15.93;;;;;;;;;;4991616;28;20435;-44
2023/02/16 12:03:05;;;;;;;23.93;16.23;;;;;;;;;;4991466;28;20783;-44
2023/02/16 12:05:34;;;;;;;21.40;14.83;;;;;;;;;;4987774;28;20414;-44
2023/02/16 12:08:03;;;;;;;27.70;17.70;;;;;;;;;;4993621;28;20510;-43
2023/02/16 12:10:35;;;;;;;27.80;16.33;;;;;;;;;;4995539;28;20438;-43
2023/02/16 12:13:08;;;;;;;26.87;17.37;;;;;;;;;;4995238;28;20475;-43
2023/02/16 12:15:51;;;;;;;27.23;17.40;;;;;;;;;;4995380;28;20915;-45
2023/02/16 12:18:36;;;;;;;33.40;17.03;;;;;;;;;;4991584;28;20412;-44
2023/02/16 12:21:12;;;;;;;25.00;16.90;;;;;;;;;;4994914;28;20423;-43
2023/02/16 12:23:41;;;;;;;25.87;16.20;;;;;;;;;;4995217;28;20419;-44
2023/02/16 12:26:07;;;;;;;27.70;18.43;;;;;;;;;;4994549;28;20411;-44
2023/02/16 12:28:36;;;;;;;28.30;17.50;;;;;;;;;;4994933;28;20412;-44
2023/02/16 12:31:10;;;;;;;30.97;17.40;;;;;;;;;;4994526;28;20550;-44
2023/02/16 12:33:54;;;;;;;26.83;17.33;;;;;;;;;;4995188;28;20458;-43
2023/02/16 12:36:32;;;;;;;30.40;18.70;;;;;;;;;;4987227;28;20843;-43
2023/02/16 12:38:58;;;;;;;26.30;16.83;;;;;;;;;;4994663;28;20999;-44
2023/02/16 12:41:30;;;;;;;25.50;17.20;;;;;;;;;;4994884;28;20806;-43
2023/02/16 12:44:05;;;;;;;28.27;16.97;;;;;;;;;;4992635;28;20922;-44
2023/02/16 12:46:39;;;;;;;27.83;17.90;;;;;;;;;;4997764;28;20415;-42
2023/02/16 12:49:23;;;;;;;25.80;17.50;;;;;;;;;;4994539;28;20468;-42
2023/02/16 12:52:03;;;;;;;27.03;18.20;;;;;;;;;;4994490;28;20842;-43
2023/02/16 12:54:50;;;;;;;33.40;17.90;;;;;;;;;;4994808;28;20412;-43
2023/02/16 12:57:24;;;;;;;32.73;19.00;;;;;;;;;;4994104;28;20910;-44
2023/02/16 13:00:03;;;;;;;28.33;15.13;;;;;;;;;;4994415;28;20424;-43
2023/02/16 13:02:35;;;;;;;29.93;18.60;;;;;;;;;;4994468;28;20420;-44
2023/02/16 13:05:07;;;;;;;25.00;16.50;;;;;;;;;;4994390;28;20512;-44
2023/02/16 13:07:41;;;;;;;25.87;16.50;;;;;;;;;;4993807;28;20416;-44
2023/02/16 13:10:17;;;;;;;23.77;15.70;;;;;;;;;;4994183;28;20440;-43
2023/02/16 13:12:46;;;;;;;26.90;16.97;;;;;;;;;;4994385;28;20418;-44
2023/02/16 13:15:18;;;;;;;25.60;16.40;;;;;;;;;;4994178;28;20402;-43
2023/02/16 13:17:49;;;;;;;28.43;16.97;;;;;;;;;;4993347;28;20393;-44
2023/02/16 13:20:17;;;;;;;27.13;16.40;;;;;;;;;;4993299;28;20508;-43
2023/02/16 13:23:02;;;;;;;33.30;16.90;;;;;;;;;;4993740;28;20412;-44
2023/02/16 13:25:47;;;;;;;26.87;16.63;;;;;;;;;;4990509;28;20781;-44
2023/02/16 13:28:21;;;;;;;29.50;17.17;;;;;;;;;;4993222;28;20410;-43
2023/02/16 13:30:50;;;;;;;26.33;17.20;;;;;;;;;;4994152;28;20474;-44
2023/02/16 13:33:21;;;;;;;26.93;17.07;;;;;;;;;;4986216;28;20436;-43
2023/02/16 13:36:10;;;;;;;33.03;18.63;;;;;;;;;;4993555;28;20493;-44
2023/02/16 13:38:54;;;;;;;25.80;16.37;;;;;;;;;;4988012;28;20413;-45
2023/02/16 13:41:39;;;;;;;27.60;17.03;;;;;;;;;;4986994;28;20419;-43
2023/02/16 13:44:22;;;;;;;28.93;18.10;;;;;;;;;;4993591;28;20980;-44
2023/02/16 13:46:51;;;;;;;30.60;17.10;;;;;;;;;;4993008;28;20417;-44
2023/02/16 13:49:37;;;;;;;27.20;18.07;;;;;;;;;;4993656;28;20496;-44
2023/02/16 13:52:04;;;;;;;28.40;17.93;;;;;;;;;;4993550;28;20557;-43
2023/02/16 13:54:33;;;;;;;31.80;17.53;;;;;;;;;;4993454;28;20473;-43
2023/02/16 13:57:03;;;;;;;29.20;18.90;;;;;;;;;;4994911;28;20449;-44
2023/02/16 13:59:29;;;;;;;27.10;17.97;;;;;;;;;;4993325;28;20438;-44
2023/02/16 14:01:56;;;;;;;28.77;18.50;;;;;;;;;;4993438;28;20410;-43
2023/02/16 14:04:21;;;;;;;29.57;16.93;;;;;;;;;;4993146;28;20426;-43
2023/02/16 14:07:03;;;;;;;26.27;16.30;;;;;;;;;;4992871;28;20470;-44
2023/02/16 14:09:29;;;;;;;30.00;17.00;;;;;;;;;;4987361;28;20439;-43
2023/02/16 14:11:56;;;;;;;31.23;17.13;;;;;;;;;;4992925;28;20678;-44
2023/02/16 14:14:41;;;;;;;27.73;17.80;;;;;;;;;;4993087;28;20450;-44
2023/02/16 14:17:16;;;;;;;27.53;17.80;;;;;;;;;;4991466;28;20454;-44
2023/02/16 14:20:01;;;;;;;26.07;17.97;;;;;;;;;;4993079;28;20917;-44
2023/02/16 14:22:33;;;;;;;28.20;17.13;;;;;;;;;;4986844;28;20408;-44
2023/02/16 14:25:01;;;;;;;29.40;17.53;;;;;;;;;;4992987;28;20440;-44
2023/02/16 14:27:44;;;;;;;24.40;17.90;;;;;;;;;;4991790;28;20845;-44
2023/02/16 14:30:31;;;;;;;24.13;17.70;;;;;;;;;;4992793;28;20468;-44
2023/02/16 14:33:14;;;;;;;30.57;16.67;;;;;;;;;;4992639;28;20546;-44
2023/02/16 14:35:41;;;;;;;27.30;17.87;;;;;;;;;;4992974;28;20824;-43
2023/02/16 14:38:15;;;;;;;28.13;18.63;;;;;;;;;;4992164;28;20424;-43
2023/02/16 14:40:47;;;;;;;27.90;16.87;;;;;;;;;;4992814;28;20581;-43
2023/02/16 14:43:32;;;;;;;32.53;18.63;;;;;;;;;;4993156;28;20410;-43
2023/02/16 14:46:01;;;;;;;31.40;18.23;;;;;;;;;;4992728;28;20423;-44
2023/02/16 14:48:36;;;;;;;32.77;18.40;;;;;;;;;;4992313;28;20432;-44
2023/02/16 14:51:05;;;;;;;28.53;17.70;;;;;;;;;;4992643;28;20475;-43
2023/02/16 14:53:46;;;;;;;29.37;17.37;;;;;;;;;;4991915;28;20414;-44
2023/02/16 14:56:19;;;;;;;28.30;18.60;;;;;;;;;;4991846;28;20407;-43
2023/02/16 14:59:21;;;;;;;32.77;19.07;;;;;;;;;;4992537;28;20404;-44
2023/02/16 15:01:47;;;;;;;31.27;18.87;;;;;;;;;;4970823;28;20413;-43
2023/02/16 15:04:27;;;;;;;26.90;18.10;;;;;;;;;;4987798;28;20475;-44
2023/02/16 15:06:53;;;;;;;26.90;18.67;;;;;;;;;;4989188;28;20416;-44